Time,TemperatureF,DewpointF,PressureIn,WindDirection,WindDirectionDegrees,WindSpeedMPH,WindSpeedGustMPH,Humidity,HourlyPrecipIn,Conditions,Clouds,dailyrainin,SoftwareType,DateUTC
2013-02-19 00:02:00,37.9,35.8,29.73,ESE,107,4.6,4.6,92,0.04,RA,,0.00,WeatherDisplay:10.37,2013-02-19 08:02:00,
2013-02-19 00:07:00,38.0,35.9,29.73,SSE,148,9.0,9.0,92,0.02,RA,,0.00,WeatherDisplay:10.37,2013-02-19 08:07:00,
2013-02-19 00:12:00,38.1,36.0,29.73,SE,138,8.1,8.1,92,0.02,OVC,,0.00,WeatherDisplay:10.37,2013-02-19 08:12:00,
2013-02-19 00:17:00,38.2,36.1,29.73,East,92,4.6,4.6,92,0.01,OVC,,0.00,WeatherDisplay:10.37,2013-02-19 08:17:00,
2013-02-19 00:22:00,38.2,35.8,29.73,SE,138,5.8,5.8,91,0.01,OVC,,0.00,WeatherDisplay:10.37,2013-02-19 08:22:00,
2013-02-19 00:27:00,38.2,35.8,29.73,SE,130,2.3,2.3,91,0.01,OVC,,0.00,WeatherDisplay:10.37,2013-02-19 08:27:00,
2013-02-19 00:32:00,38.2,35.8,29.73,SSE,163,4.0,4.0,91,0.01,OVC,,0.00,WeatherDisplay:10.37,2013-02-19 08:32:00,
2013-02-19 00:37:00,38.3,35.9,29.73,SE,140,4.6,4.6,91,0.01,OVC,,0.00,WeatherDisplay:10.37,2013-02-19 08:37:00,
2013-02-19 00:42:00,38.5,35.8,29.72,ESE,111,10.4,10.4,90,0.01,OVC,,0.00,WeatherDisplay:10.37,2013-02-19 08:42:00,
2013-02-19 00:47:00,38.7,35.7,29.72,ESE,104,10.4,10.4,89,0.01,OVC,,0.00,WeatherDisplay:10.37,2013-02-19 08:47:00,
2013-02-19 00:52:00,38.9,35.9,29.72,SSE,159,7.0,7.0,89,0.00,OVC,,0.00,WeatherDisplay:10.37,2013-02-19 08:52:00,
2013-02-19 00:57:00,39.0,35.7,29.72,SE,144,5.8,5.8,88,0.00,OVC,,0.00,WeatherDisplay:10.37,2013-02-19 08:57:00,
2013-02-19 01:02:00,39.0,35.7,29.72,SSE,151,9.2,9.2,88,0.00,OVC,,0.00,WeatherDisplay:10.37,2013-02-19 09:02:00,
2013-02-19 01:07:00,38.9,35.6,29.72,SSE,152,8.1,8.1,88,0.00,OVC,,0.00,WeatherDisplay:10.37,2013-02-19 09:07:00,
2013-02-19 01:12:00,38.8,35.8,29.72,SE,124,10.4,10.4,89,0.00,OVC,,0.00,WeatherDisplay:10.37,2013-02-19 09:12:00,
2013-02-19 01:17:00,38.7,35.7,29.72,SSE,159,11.5,11.5,89,0.00,OVC,,0.00,WeatherDisplay:10.37,2013-02-19 09:17:00,
2013-02-19 01:22:00,38.7,35.7,29.71,SSE,160,6.9,6.9,89,0.00,OVC,,0.00,WeatherDisplay:10.37,2013-02-19 09:22:00,
2013-02-19 01:27:00,38.7,35.7,29.71,SSE,154,9.2,9.2,89,0.00,OVC,,0.00,WeatherDisplay:10.37,2013-02-19 09:27:00,
2013-02-19 01:32:00,38.6,35.6,29.72,SSE,153,5.8,5.8,89,0.00,OVC,,0.00,WeatherDisplay:10.37,2013-02-19 09:32:00,
2013-02-19 01:37:00,38.5,35.5,29.72,SE,145,11.5,11.5,89,0.00,OVC,,0.00,WeatherDisplay:10.37,2013-02-19 09:37:00,
2013-02-19 01:42:00,38.5,35.5,29.71,SE,124,5.8,5.8,89,0.00,OVC,,0.00,WeatherDisplay:10.37,2013-02-19 09:42:00,
2013-02-19 01:47:00,38.4,35.7,29.72,SSE,147,11.5,11.5,90,0.00,OVC,,0.00,WeatherDisplay:10.37,2013-02-19 09:47:00,
2013-02-19 01:52:00,38.3,35.6,29.72,SSE,147,13.8,13.8,90,0.01,RA,,0.01,WeatherDisplay:10.37,2013-02-19 09:52:00,
2013-02-19 01:57:00,38.2,35.5,29.72,SE,139,12.7,12.7,90,0.01,RA,,0.01,WeatherDisplay:10.37,2013-02-19 09:57:00,
2013-02-19 02:02:00,38.1,35.4,29.71,East,98,9.2,9.2,90,0.02,RA,,0.02,WeatherDisplay:10.37,2013-02-19 10:02:00,
2013-02-19 02:07:00,37.9,35.2,29.72,SSE,148,11.5,11.5,90,0.02,RA,,0.02,WeatherDisplay:10.37,2013-02-19 10:07:00,
2013-02-19 02:12:00,37.7,35.3,29.71,SSE,151,5.8,5.8,91,0.02,OVC,,0.02,WeatherDisplay:10.37,2013-02-19 10:12:00,
2013-02-19 02:17:00,37.6,35.2,29.71,SSE,152,4.6,4.6,91,0.04,RA,,0.04,WeatherDisplay:10.37,2013-02-19 10:17:00,
2013-02-19 02:22:00,37.5,35.4,29.71,SSE,153,4.0,4.0,92,0.04,RA,,0.04,WeatherDisplay:10.37,2013-02-19 10:22:00,
2013-02-19 02:27:00,37.4,35.3,29.71,SE,144,10.4,10.4,92,0.04,OVC,,0.04,WeatherDisplay:10.37,2013-02-19 10:27:00,
2013-02-19 02:32:00,37.3,35.2,29.71,SE,145,9.2,9.2,92,0.05,RA,,0.05,WeatherDisplay:10.37,2013-02-19 10:32:00,
2013-02-19 02:37:00,37.3,35.2,29.71,SE,125,9.2,9.2,92,0.05,RA,,0.05,WeatherDisplay:10.37,2013-02-19 10:37:00,
2013-02-19 02:42:00,37.3,35.2,29.71,South,169,6.0,6.0,92,0.05,OVC,,0.05,WeatherDisplay:10.37,2013-02-19 10:42:00,
2013-02-19 02:47:00,37.3,35.2,29.70,SE,136,7.0,7.0,92,0.05,OVC,,0.05,WeatherDisplay:10.37,2013-02-19 10:47:00,
2013-02-19 02:52:00,37.2,35.1,29.71,SE,146,8.0,8.0,92,0.04,OVC,,0.05,WeatherDisplay:10.37,2013-02-19 10:52:00,
2013-02-19 02:57:00,37.1,35.0,29.70,SE,140,6.0,6.0,92,0.04,OVC,,0.05,WeatherDisplay:10.37,2013-02-19 10:57:00,
2013-02-19 03:02:00,37.1,35.0,29.70,SE,137,3.5,3.5,92,0.02,OVC,,0.05,WeatherDisplay:10.37,2013-02-19 11:02:00,
2013-02-19 03:07:00,37.1,35.3,29.70,SE,132,3.5,3.5,93,0.04,RA,,0.06,WeatherDisplay:10.37,2013-02-19 11:07:00,
2013-02-19 03:12:00,37.2,35.4,29.70,ESE,110,3.5,3.5,93,0.04,RA,,0.06,WeatherDisplay:10.37,2013-02-19 11:12:00,
2013-02-19 03:17:00,37.3,35.5,29.70,East,96,4.6,4.6,93,0.02,OVC,,0.06,WeatherDisplay:10.37,2013-02-19 11:17:00,
2013-02-19 03:22:00,37.4,35.6,29.70,SSW,192,9.0,9.0,93,0.02,OVC,,0.06,WeatherDisplay:10.37,2013-02-19 11:22:00,
2013-02-19 03:27:00,37.5,35.7,29.70,East,87,3.5,3.5,93,0.02,OVC,,0.06,WeatherDisplay:10.37,2013-02-19 11:27:00,
2013-02-19 03:32:00,37.6,35.5,29.69,ESE,111,4.6,4.6,92,0.01,OVC,,0.06,WeatherDisplay:10.37,2013-02-19 11:32:00,
2013-02-19 03:37:00,37.6,35.5,29.70,ESE,111,9.2,9.2,92,0.01,OVC,,0.06,WeatherDisplay:10.37,2013-02-19 11:37:00,
2013-02-19 03:42:00,37.6,35.5,29.70,SSE,159,6.9,6.9,92,0.01,OVC,,0.06,WeatherDisplay:10.37,2013-02-19 11:42:00,
2013-02-19 03:47:00,37.7,35.6,29.70,ENE,65,6.9,6.9,92,0.01,OVC,,0.06,WeatherDisplay:10.37,2013-02-19 11:47:00,
2013-02-19 03:52:00,37.7,35.6,29.70,ESE,102,2.3,2.3,92,0.01,OVC,,0.06,WeatherDisplay:10.37,2013-02-19 11:52:00,
2013-02-19 03:57:00,37.7,35.6,29.70,East,89,10.4,10.4,92,0.01,OVC,,0.06,WeatherDisplay:10.37,2013-02-19 11:57:00,
2013-02-19 04:02:00,37.8,35.4,29.70,SSE,155,6.9,6.9,91,0.01,OVC,,0.06,WeatherDisplay:10.37,2013-02-19 12:02:00,
2013-02-19 04:07:00,37.9,35.5,29.70,SSE,157,2.3,2.3,91,0.00,OVC,,0.06,WeatherDisplay:10.37,2013-02-19 12:07:00,
2013-02-19 04:12:00,37.9,35.5,29.70,SSE,156,2.3,2.3,91,0.00,OVC,,0.06,WeatherDisplay:10.37,2013-02-19 12:12:00,
2013-02-19 04:17:00,37.9,35.5,29.70,ESE,114,3.5,3.5,91,0.00,OVC,,0.06,WeatherDisplay:10.37,2013-02-19 12:17:00,
2013-02-19 04:22:00,38.0,35.6,29.70,SE,140,4.6,4.6,91,0.00,OVC,,0.06,WeatherDisplay:10.37,2013-02-19 12:22:00,
2013-02-19 04:27:00,38.1,35.7,29.70,SSE,148,3.5,3.5,91,0.00,OVC,,0.06,WeatherDisplay:10.37,2013-02-19 12:27:00,
2013-02-19 04:32:00,38.1,35.7,29.70,SE,142,3.5,3.5,91,0.00,OVC,,0.06,WeatherDisplay:10.37,2013-02-19 12:32:00,
2013-02-19 04:37:00,38.1,35.7,29.70,SSE,148,9.0,9.0,91,0.00,OVC,,0.06,WeatherDisplay:10.37,2013-02-19 12:37:00,
2013-02-19 04:42:00,38.2,35.8,29.70,SSE,159,5.0,5.0,91,0.00,OVC,,0.06,WeatherDisplay:10.37,2013-02-19 12:42:00,
2013-02-19 04:47:00,38.2,35.8,29.70,SSE,150,3.5,3.5,91,0.00,OVC,,0.06,WeatherDisplay:10.37,2013-02-19 12:47:00,
2013-02-19 04:52:00,38.1,35.7,29.70,SSE,151,4.0,4.0,91,0.00,OVC,,0.06,WeatherDisplay:10.37,2013-02-19 12:52:00,
2013-02-19 04:57:00,38.1,35.7,29.70,SSE,151,2.3,2.3,91,0.00,OVC,,0.06,WeatherDisplay:10.37,2013-02-19 12:57:00,
2013-02-19 05:02:00,38.0,35.6,29.70,SSE,161,4.6,4.6,91,0.00,OVC,,0.06,WeatherDisplay:10.37,2013-02-19 13:02:00,
2013-02-19 05:07:00,38.0,35.6,29.70,SE,134,9.2,9.2,91,0.00,OVC,,0.06,WeatherDisplay:10.37,2013-02-19 13:07:00,
2013-02-19 05:12:00,38.1,35.4,29.70,SSE,158,4.6,4.6,90,0.00,OVC,,0.06,WeatherDisplay:10.37,2013-02-19 13:12:00,
2013-02-19 05:17:00,38.1,35.4,29.70,SSE,152,4.6,4.6,90,0.00,OVC,,0.06,WeatherDisplay:10.37,2013-02-19 13:17:00,
2013-02-19 05:22:00,38.0,35.3,29.70,ESE,123,2.3,2.3,90,0.00,OVC,,0.06,WeatherDisplay:10.37,2013-02-19 13:22:00,
2013-02-19 05:27:00,38.0,35.6,29.70,ESE,110,6.9,6.9,91,0.00,OVC,,0.06,WeatherDisplay:10.37,2013-02-19 13:27:00,
2013-02-19 05:32:00,38.0,35.6,29.71,SSE,153,3.5,3.5,91,0.00,OVC,,0.06,WeatherDisplay:10.37,2013-02-19 13:32:00,
2013-02-19 05:37:00,38.1,35.7,29.71,South,177,0.0,0.0,91,0.00,OVC,,0.06,WeatherDisplay:10.37,2013-02-19 13:37:00,
2013-02-19 05:42:00,38.2,35.8,29.71,South,169,1.1,0.0,91,0.00,OVC,,0.06,WeatherDisplay:10.37,2013-02-19 13:42:00,
2013-02-19 05:47:00,38.2,35.8,29.71,SSE,152,3.5,3.5,91,0.00,OVC,,0.06,WeatherDisplay:10.37,2013-02-19 13:47:00,
2013-02-19 05:52:00,38.3,35.9,29.71,SSE,158,3.5,3.5,91,0.00,OVC,,0.06,WeatherDisplay:10.37,2013-02-19 13:52:00,
2013-02-19 05:57:00,38.3,35.6,29.71,SSE,158,2.3,0.0,90,0.00,OVC,,0.06,WeatherDisplay:10.37,2013-02-19 13:57:00,
2013-02-19 06:02:00,38.3,35.9,29.71,SSE,158,3.5,3.5,91,0.00,OVC,,0.06,WeatherDisplay:10.37,2013-02-19 14:02:00,
2013-02-19 06:07:00,38.2,35.8,29.72,SSE,158,0.0,0.0,91,0.00,OVC,,0.06,WeatherDisplay:10.37,2013-02-19 14:07:00,
2013-02-19 06:12:00,38.2,35.8,29.72,SSE,158,0.0,0.0,91,0.00,OVC,,0.06,WeatherDisplay:10.37,2013-02-19 14:12:00,
2013-02-19 06:17:00,38.2,35.8,29.72,SSE,158,0.0,0.0,91,0.00,OVC,,0.06,WeatherDisplay:10.37,2013-02-19 14:17:00,
2013-02-19 06:22:00,38.1,35.4,29.72,SSE,158,0.0,0.0,90,0.00,OVC,,0.06,WeatherDisplay:10.37,2013-02-19 14:22:00,
2013-02-19 06:27:00,38.0,35.6,29.72,SSE,158,0.0,0.0,91,0.00,OVC,,0.06,WeatherDisplay:10.37,2013-02-19 14:27:00,
2013-02-19 06:32:00,37.9,35.5,29.72,SSE,158,0.0,0.0,91,0.00,OVC,,0.06,WeatherDisplay:10.37,2013-02-19 14:32:00,
2013-02-19 06:37:00,37.9,35.5,29.72,SSE,158,0.0,0.0,91,0.00,OVC,,0.06,WeatherDisplay:10.37,2013-02-19 14:37:00,
2013-02-19 06:42:00,37.8,35.4,29.73,SSE,158,0.0,0.0,91,0.00,OVC,,0.06,WeatherDisplay:10.37,2013-02-19 14:42:00,
2013-02-19 06:47:00,37.7,35.3,29.73,SSE,158,2.3,2.3,91,0.01,RA,,0.07,WeatherDisplay:10.37,2013-02-19 14:47:00,
2013-02-19 06:52:00,37.7,35.3,29.73,SSE,158,0.0,0.3,91,0.01,RA,,0.07,WeatherDisplay:10.37,2013-02-19 14:52:00,
2013-02-19 06:57:00,37.6,35.5,29.73,SSE,158,1.1,1.1,92,0.01,OVC,,0.07,WeatherDisplay:10.37,2013-02-19 14:57:00,
2013-02-19 07:02:00,37.6,35.5,29.73,SSE,158,0.0,0.2,92,0.01,OVC,,0.07,WeatherDisplay:10.37,2013-02-19 15:02:00,
2013-02-19 07:07:00,37.6,35.5,29.73,SSE,158,0.0,0.0,92,0.01,OVC,,0.07,WeatherDisplay:10.37,2013-02-19 15:07:00,
2013-02-19 07:12:00,37.6,35.5,29.74,SSE,158,0.0,0.0,92,0.01,OVC,,0.07,WeatherDisplay:10.37,2013-02-19 15:12:00,
2013-02-19 07:17:00,37.6,35.5,29.74,SSE,158,0.0,0.0,92,0.01,OVC,,0.07,WeatherDisplay:10.37,2013-02-19 15:17:00,
2013-02-19 07:22:00,37.6,35.5,29.74,SSE,158,0.0,0.0,92,0.01,OVC,,0.07,WeatherDisplay:10.37,2013-02-19 15:22:00,
2013-02-19 07:27:00,37.5,35.4,29.74,SSE,158,0.0,0.0,92,0.01,OVC,,0.07,WeatherDisplay:10.37,2013-02-19 15:27:00,
2013-02-19 07:32:00,37.4,35.3,29.74,SSE,158,0.0,0.0,92,0.01,OVC,,0.07,WeatherDisplay:10.37,2013-02-19 15:32:00,
2013-02-19 07:37:00,37.3,35.2,29.74,SSE,158,0.0,0.0,92,0.01,OVC,,0.07,WeatherDisplay:10.37,2013-02-19 15:37:00,
2013-02-19 07:42:00,37.3,35.2,29.74,SSE,158,0.0,0.0,92,0.01,OVC,,0.07,WeatherDisplay:10.37,2013-02-19 15:42:00,
2013-02-19 07:47:00,37.3,35.2,29.74,SSE,158,0.0,0.0,92,0.00,OVC,,0.07,WeatherDisplay:10.37,2013-02-19 15:47:00,
2013-02-19 07:52:00,37.3,35.2,29.74,SSE,158,0.0,0.0,92,0.00,OVC,,0.07,WeatherDisplay:10.37,2013-02-19 15:52:00,
2013-02-19 07:57:00,37.3,35.5,29.74,SSE,158,1.0,1.0,93,0.00,OVC,,0.07,WeatherDisplay:10.37,2013-02-19 15:57:00,
2013-02-19 08:02:00,37.3,35.5,29.74,SSE,163,2.3,2.3,93,0.00,OVC,,0.07,WeatherDisplay:10.37,2013-02-19 16:02:00,
2013-02-19 08:07:00,37.2,35.1,29.74,WNW,286,1.1,0.0,92,0.00,OVC,,0.07,WeatherDisplay:10.37,2013-02-19 16:07:00,
2013-02-19 08:12:00,37.1,35.3,29.74,WNW,286,3.5,3.5,93,0.00,OVC,,0.07,WeatherDisplay:10.37,2013-02-19 16:12:00,
2013-02-19 08:17:00,37.0,35.2,29.74,WNW,286,2.3,2.3,93,0.00,OVC,,0.07,WeatherDisplay:10.37,2013-02-19 16:17:00,
2013-02-19 08:22:00,37.0,35.2,29.75,WNW,286,3.5,3.5,93,0.00,OVC,,0.07,WeatherDisplay:10.37,2013-02-19 16:22:00,
2013-02-19 08:27:00,37.1,35.3,29.75,WNW,292,4.6,4.6,93,0.00,OVC,,0.07,WeatherDisplay:10.37,2013-02-19 16:27:00,
2013-02-19 08:32:00,37.1,35.3,29.75,West,275,3.5,3.5,93,0.00,OVC,,0.07,WeatherDisplay:10.37,2013-02-19 16:32:00,
2013-02-19 08:37:00,37.3,35.5,29.75,NW,304,2.3,2.3,93,0.00,OVC,,0.07,WeatherDisplay:10.37,2013-02-19 16:37:00,
2013-02-19 08:42:00,37.4,35.6,29.75,SSW,205,3.5,3.5,93,0.00,OVC,,0.07,WeatherDisplay:10.37,2013-02-19 16:42:00,
2013-02-19 08:47:00,37.6,35.8,29.75,SW,221,1.0,1.0,93,0.00,OVC,,0.07,WeatherDisplay:10.37,2013-02-19 16:47:00,
2013-02-19 08:52:00,37.7,35.9,29.75,WSW,252,1.1,1.1,93,0.00,OVC,,0.07,WeatherDisplay:10.37,2013-02-19 16:52:00,
2013-02-19 08:57:00,37.8,36.0,29.75,WSW,252,3.0,3.0,93,0.00,OVC,,0.07,WeatherDisplay:10.37,2013-02-19 16:57:00,
2013-02-19 09:02:00,37.9,36.1,29.75,WSW,252,2.3,2.3,93,0.00,OVC,,0.07,WeatherDisplay:10.37,2013-02-19 17:02:00,
2013-02-19 09:07:00,38.1,36.3,29.76,WNW,293,3.5,3.5,93,0.00,OVC,,0.07,WeatherDisplay:10.37,2013-02-19 17:07:00,
2013-02-19 09:12:00,38.4,36.6,29.76,NW,307,3.5,3.5,93,0.00,OVC,,0.07,WeatherDisplay:10.37,2013-02-19 17:12:00,
2013-02-19 09:17:00,38.7,36.9,29.76,NW,315,3.5,3.5,93,0.00,OVC,,0.07,WeatherDisplay:10.37,2013-02-19 17:17:00,
2013-02-19 09:22:00,38.8,36.9,29.76,NW,311,3.5,3.5,93,0.00,OVC,,0.07,WeatherDisplay:10.37,2013-02-19 17:22:00,
2013-02-19 09:27:00,39.0,36.9,29.75,NW,311,2.3,2.3,92,0.00,OVC,,0.07,WeatherDisplay:10.37,2013-02-19 17:27:00,
2013-02-19 09:32:00,39.2,37.3,29.76,WNW,293,4.0,4.0,93,0.00,OVC,,0.07,WeatherDisplay:10.37,2013-02-19 17:32:00,
2013-02-19 09:37:00,39.5,37.4,29.76,WNW,295,2.3,2.3,92,0.00,OVC,,0.07,WeatherDisplay:10.37,2013-02-19 17:37:00,
2013-02-19 09:42:00,39.9,38.0,29.76,WNW,294,3.5,3.5,93,0.00,OVC,,0.07,WeatherDisplay:10.37,2013-02-19 17:42:00,
2013-02-19 09:47:00,40.4,38.5,29.76,WNW,285,5.0,5.0,93,0.00,OVC,,0.07,WeatherDisplay:10.37,2013-02-19 17:47:00,
2013-02-19 09:52:00,40.9,39.0,29.75,NW,313,3.5,3.5,93,0.00,OVC,,0.07,WeatherDisplay:10.37,2013-02-19 17:52:00,
2013-02-19 09:57:00,41.4,39.3,29.76,WNW,296,5.8,5.8,92,0.00,OVC,,0.07,WeatherDisplay:10.37,2013-02-19 17:57:00,
2013-02-19 10:02:00,41.9,39.5,29.76,NW,308,6.9,6.9,91,0.00,OVC,,0.07,WeatherDisplay:10.37,2013-02-19 18:02:00,
2013-02-19 10:07:00,42.4,39.7,29.76,WNW,292,5.8,5.8,90,0.00,OVC,,0.07,WeatherDisplay:10.37,2013-02-19 18:07:00,
2013-02-19 10:12:00,42.5,39.8,29.76,NW,319,5.8,5.8,90,0.00,OVC,,0.07,WeatherDisplay:10.37,2013-02-19 18:12:00,
2013-02-19 10:17:00,42.4,39.4,29.76,NW,311,6.9,6.9,89,0.00,OVC,,0.07,WeatherDisplay:10.37,2013-02-19 18:17:00,
2013-02-19 10:22:00,42.4,39.4,29.76,WNW,300,6.9,6.9,89,0.00,OVC,,0.07,WeatherDisplay:10.37,2013-02-19 18:22:00,
2013-02-19 10:27:00,42.5,39.5,29.76,WNW,288,7.0,7.0,89,0.00,OVC,,0.07,WeatherDisplay:10.37,2013-02-19 18:27:00,
2013-02-19 10:32:00,42.7,39.4,29.76,WNW,302,4.6,4.6,88,0.00,OVC,,0.07,WeatherDisplay:10.37,2013-02-19 18:32:00,
2013-02-19 10:37:00,42.8,39.5,29.76,WNW,300,7.0,7.0,88,0.00,OVC,,0.07,WeatherDisplay:10.37,2013-02-19 18:37:00,
2013-02-19 10:42:00,42.8,39.5,29.77,WNW,297,10.4,10.4,88,0.00,OVC,,0.07,WeatherDisplay:10.37,2013-02-19 18:42:00,
2013-02-19 10:47:00,42.9,39.6,29.77,NW,308,3.5,3.5,88,0.00,OVC,,0.07,WeatherDisplay:10.37,2013-02-19 18:47:00,
2013-02-19 10:52:00,43.4,40.1,29.76,WNW,293,6.9,6.9,88,0.00,OVC,,0.07,WeatherDisplay:10.37,2013-02-19 18:52:00,
2013-02-19 10:57:00,44.0,40.4,29.76,WNW,284,6.0,6.0,87,0.00,OVC,,0.07,WeatherDisplay:10.37,2013-02-19 18:57:00,
2013-02-19 11:02:00,44.4,40.5,29.77,WNW,302,5.8,5.8,86,0.00,OVC,,0.07,WeatherDisplay:10.37,2013-02-19 19:02:00,
2013-02-19 11:07:00,44.7,40.8,29.77,NW,305,9.0,9.0,86,0.00,OVC,,0.07,WeatherDisplay:10.37,2013-02-19 19:07:00,
2013-02-19 11:12:00,44.7,40.5,29.77,WNW,296,8.1,8.1,85,0.00,OVC,,0.07,WeatherDisplay:10.37,2013-02-19 19:12:00,
2013-02-19 11:17:00,44.8,40.6,29.77,WNW,298,5.8,5.8,85,0.00,OVC,,0.07,WeatherDisplay:10.37,2013-02-19 19:17:00,
2013-02-19 11:22:00,45.1,40.9,29.77,NW,313,6.9,6.9,85,0.00,OVC,,0.07,WeatherDisplay:10.37,2013-02-19 19:22:00,
2013-02-19 11:27:00,45.4,40.8,29.77,WNW,301,6.0,6.0,84,0.00,OVC,,0.07,WeatherDisplay:10.37,2013-02-19 19:27:00,
2013-02-19 11:32:00,45.7,39.9,29.77,NW,304,8.1,8.1,80,0.00,OVC,,0.07,WeatherDisplay:10.37,2013-02-19 19:32:00,
2013-02-19 11:37:00,46.0,40.2,29.77,WNW,298,5.0,5.0,80,0.00,OVC,,0.07,WeatherDisplay:10.37,2013-02-19 19:37:00,
2013-02-19 11:42:00,45.8,40.0,29.77,WNW,290,4.6,4.6,80,0.00,OVC,,0.07,WeatherDisplay:10.37,2013-02-19 19:42:00,
2013-02-19 11:47:00,46.0,40.5,29.77,WNW,303,7.0,7.0,81,0.00,OVC,,0.07,WeatherDisplay:10.37,2013-02-19 19:47:00,
2013-02-19 11:52:00,46.1,40.3,29.77,NW,309,6.9,6.9,80,0.00,OVC,,0.07,WeatherDisplay:10.37,2013-02-19 19:52:00,
2013-02-19 11:57:00,46.5,41.0,29.77,NNW,329,5.8,5.8,81,0.00,OVC,,0.07,WeatherDisplay:10.37,2013-02-19 19:57:00,
2013-02-19 12:02:00,46.6,40.8,29.77,NNW,347,10.4,10.4,80,0.00,OVC,,0.07,WeatherDisplay:10.37,2013-02-19 20:02:00,
2013-02-19 12:07:00,46.4,40.2,29.77,NW,324,6.9,6.9,79,0.00,OVC,,0.07,WeatherDisplay:10.37,2013-02-19 20:07:00,
2013-02-19 12:12:00,46.4,40.2,29.77,NW,314,4.6,4.6,79,0.00,OVC,,0.07,WeatherDisplay:10.37,2013-02-19 20:12:00,
2013-02-19 12:17:00,46.7,40.9,29.77,NW,306,5.8,5.8,80,0.00,OVC,,0.07,WeatherDisplay:10.37,2013-02-19 20:17:00,
2013-02-19 12:22:00,46.8,40.6,29.77,NW,306,5.8,5.8,79,0.00,OVC,,0.07,WeatherDisplay:10.37,2013-02-19 20:22:00,
2013-02-19 12:27:00,46.9,40.4,29.77,NW,323,5.8,5.8,78,0.00,OVC,,0.07,WeatherDisplay:10.37,2013-02-19 20:27:00,
2013-02-19 12:32:00,47.2,40.7,29.77,NW,313,4.6,4.6,78,0.00,OVC,,0.07,WeatherDisplay:10.37,2013-02-19 20:32:00,
2013-02-19 12:37:00,48.1,41.9,29.77,NW,305,4.6,4.6,79,0.00,OVC,,0.07,WeatherDisplay:10.37,2013-02-19 20:37:00,
2013-02-19 12:42:00,49.0,41.8,29.77,NW,304,5.0,5.0,76,0.00,OVC,,0.07,WeatherDisplay:10.37,2013-02-19 20:42:00,
2013-02-19 12:47:00,48.8,40.5,29.78,WNW,301,9.2,9.2,73,0.00,OVC,,0.07,WeatherDisplay:10.37,2013-02-19 20:47:00,
2013-02-19 12:52:00,48.5,40.9,29.78,NNW,331,8.1,8.1,75,0.00,OVC,,0.07,WeatherDisplay:10.37,2013-02-19 20:52:00,
2013-02-19 12:57:00,48.7,40.4,29.78,NW,309,4.6,4.6,73,0.00,OVC,,0.07,WeatherDisplay:10.37,2013-02-19 20:57:00,
2013-02-19 13:02:00,48.8,40.2,29.78,West,261,10.4,10.4,72,0.00,OVC,,0.07,WeatherDisplay:10.37,2013-02-19 21:02:00,
2013-02-19 13:07:00,48.9,39.9,29.78,NW,304,5.8,5.8,71,0.00,OVC,,0.07,WeatherDisplay:10.37,2013-02-19 21:07:00,
2013-02-19 13:12:00,48.8,39.4,29.78,NNW,329,10.4,10.4,70,0.00,OVC,,0.07,WeatherDisplay:10.37,2013-02-19 21:12:00,
2013-02-19 13:17:00,48.8,40.2,29.78,NW,311,6.9,6.9,72,0.00,OVC,,0.07,WeatherDisplay:10.37,2013-02-19 21:17:00,
2013-02-19 13:22:00,49.2,40.6,29.78,WNW,298,5.8,5.8,72,0.00,OVC,,0.07,WeatherDisplay:10.37,2013-02-19 21:22:00,
2013-02-19 13:27:00,50.0,40.2,29.78,NW,316,6.9,6.9,69,0.00,OVC,,0.07,WeatherDisplay:10.37,2013-02-19 21:27:00,
2013-02-19 13:32:00,50.3,39.0,29.78,WNW,294,11.5,11.5,65,0.00,OVC,,0.07,WeatherDisplay:10.37,2013-02-19 21:32:00,
2013-02-19 13:37:00,50.4,38.7,29.78,NNW,340,12.7,12.7,64,0.00,OVC,,0.07,WeatherDisplay:10.37,2013-02-19 21:37:00,
2013-02-19 13:42:00,50.3,38.6,29.78,NW,309,11.5,11.5,64,0.00,OVC,,0.07,WeatherDisplay:10.37,2013-02-19 21:42:00,
2013-02-19 13:47:00,50.0,39.5,29.78,NW,310,3.5,3.5,67,0.00,OVC,,0.07,WeatherDisplay:10.37,2013-02-19 21:47:00,
2013-02-19 13:52:00,50.0,38.3,29.78,NW,319,11.5,11.5,64,0.00,OVC,,0.07,WeatherDisplay:10.37,2013-02-19 21:52:00,
2013-02-19 13:57:00,49.8,38.1,29.79,NW,309,11.5,11.5,64,0.00,OVC,,0.07,WeatherDisplay:10.37,2013-02-19 21:57:00,
2013-02-19 14:02:00,49.8,37.7,29.79,NW,304,12.7,12.7,63,0.00,OVC,,0.07,WeatherDisplay:10.37,2013-02-19 22:02:00,
2013-02-19 14:07:00,49.6,37.9,29.79,NW,304,11.5,11.5,64,0.00,OVC,,0.07,WeatherDisplay:10.37,2013-02-19 22:07:00,
2013-02-19 14:12:00,49.6,37.5,29.79,NW,323,12.7,12.7,63,0.00,OVC,,0.07,WeatherDisplay:10.37,2013-02-19 22:12:00,
2013-02-19 14:17:00,49.5,37.0,29.79,WNW,301,12.7,12.7,62,0.00,OVC,,0.07,WeatherDisplay:10.37,2013-02-19 22:17:00,
2013-02-19 14:22:00,49.9,38.6,29.79,WNW,300,7.0,7.0,65,0.00,OVC,,0.07,WeatherDisplay:10.37,2013-02-19 22:22:00,
2013-02-19 14:27:00,50.4,37.9,29.79,WNW,295,9.2,9.2,62,0.00,OVC,,0.07,WeatherDisplay:10.37,2013-02-19 22:27:00,
2013-02-19 14:32:00,50.6,38.1,29.79,NW,313,6.0,6.0,62,0.00,OVC,,0.07,WeatherDisplay:10.37,2013-02-19 22:32:00,
2013-02-19 14:37:00,50.3,36.9,29.80,NW,311,12.0,12.0,60,0.00,OVC,,0.07,WeatherDisplay:10.37,2013-02-19 22:37:00,
2013-02-19 14:42:00,50.1,37.6,29.80,NNW,328,5.0,5.0,62,0.00,OVC,,0.07,WeatherDisplay:10.37,2013-02-19 22:42:00,
2013-02-19 14:47:00,50.3,36.9,29.80,West,281,11.0,11.0,60,0.00,OVC,,0.07,WeatherDisplay:10.37,2013-02-19 22:47:00,
2013-02-19 14:52:00,50.2,36.4,29.80,NW,319,11.5,11.5,59,0.00,OVC,,0.07,WeatherDisplay:10.37,2013-02-19 22:52:00,
2013-02-19 14:57:00,49.9,36.6,29.80,North,360,11.5,11.5,60,0.00,OVC,,0.07,WeatherDisplay:10.37,2013-02-19 22:57:00,
2013-02-19 15:02:00,49.9,37.0,29.80,NW,304,8.1,8.1,61,0.00,OVC,,0.07,WeatherDisplay:10.37,2013-02-19 23:02:00,
2013-02-19 15:07:00,49.7,35.9,29.80,WNW,303,9.2,9.2,59,0.00,OVC,,0.07,WeatherDisplay:10.37,2013-02-19 23:07:00,
2013-02-19 15:12:00,49.6,36.7,29.80,NW,313,13.8,13.8,61,0.00,OVC,,0.07,WeatherDisplay:10.37,2013-02-19 23:12:00,
2013-02-19 15:17:00,49.7,35.9,29.80,NW,311,13.8,13.8,59,0.00,OVC,,0.07,WeatherDisplay:10.37,2013-02-19 23:17:00,
2013-02-19 15:22:00,49.7,35.9,29.80,NW,312,5.0,5.0,59,0.00,OVC,,0.07,WeatherDisplay:10.37,2013-02-19 23:22:00,
2013-02-19 15:27:00,49.8,35.2,29.80,WNW,296,9.2,9.2,57,0.00,OVC,,0.07,WeatherDisplay:10.37,2013-02-19 23:27:00,
2013-02-19 15:32:00,50.0,36.7,29.80,NW,306,6.9,6.9,60,0.00,OVC,,0.07,WeatherDisplay:10.37,2013-02-19 23:32:00,
2013-02-19 15:37:00,50.2,37.3,29.81,East,84,12.7,12.7,61,0.00,OVC,,0.07,WeatherDisplay:10.37,2013-02-19 23:37:00,
2013-02-19 15:42:00,49.5,37.0,29.81,NE,46,3.5,3.5,62,0.00,OVC,,0.07,WeatherDisplay:10.37,2013-02-19 23:42:00,
2013-02-19 15:47:00,49.3,38.0,29.81,WNW,291,4.6,4.6,65,0.00,OVC,,0.07,WeatherDisplay:10.37,2013-02-19 23:47:00,
2013-02-19 15:52:00,49.5,38.2,29.81,WNW,288,5.8,5.8,65,0.00,OVC,,0.07,WeatherDisplay:10.37,2013-02-19 23:52:00,
2013-02-19 15:57:00,49.8,38.1,29.81,SSW,200,5.8,5.8,64,0.00,OVC,,0.07,WeatherDisplay:10.37,2013-02-19 23:57:00,
2013-02-19 16:02:00,49.9,37.8,29.81,WNW,293,6.9,6.9,63,0.00,OVC,,0.07,WeatherDisplay:10.37,2013-02-20 00:02:00,
2013-02-19 16:07:00,49.9,37.8,29.81,WNW,288,4.0,4.0,63,0.00,OVC,,0.07,WeatherDisplay:10.37,2013-02-20 00:07:00,
2013-02-19 16:12:00,49.9,37.8,29.82,WNW,289,5.0,5.0,63,0.00,OVC,,0.07,WeatherDisplay:10.37,2013-02-20 00:12:00,
2013-02-19 16:17:00,49.6,36.7,29.82,WNW,303,9.2,9.2,61,0.00,OVC,,0.07,WeatherDisplay:10.37,2013-02-20 00:17:00,
2013-02-19 16:22:00,49.2,36.3,29.82,NW,325,5.8,5.8,61,0.00,OVC,,0.07,WeatherDisplay:10.37,2013-02-20 00:22:00,
2013-02-19 16:27:00,48.7,36.3,29.82,WNW,297,12.7,12.7,62,0.00,OVC,,0.07,WeatherDisplay:10.37,2013-02-20 00:27:00,
2013-02-19 16:32:00,48.3,36.7,29.83,NW,316,7.0,7.0,64,0.00,OVC,,0.07,WeatherDisplay:10.37,2013-02-20 00:32:00,
2013-02-19 16:37:00,47.9,36.7,29.83,NW,311,5.8,5.8,65,0.00,OVC,,0.07,WeatherDisplay:10.37,2013-02-20 00:37:00,
2013-02-19 16:42:00,47.5,36.3,29.83,WNW,292,6.9,6.9,65,0.00,OVC,,0.07,WeatherDisplay:10.37,2013-02-20 00:42:00,
2013-02-19 16:47:00,47.3,36.9,29.83,WNW,303,1.1,1.1,67,0.00,OVC,,0.07,WeatherDisplay:10.37,2013-02-20 00:47:00,
2013-02-19 16:52:00,47.1,37.8,29.84,East,86,5.8,5.8,70,0.00,OVC,,0.07,WeatherDisplay:10.37,2013-02-20 00:52:00,
2013-02-19 16:57:00,46.8,38.6,29.84,West,279,2.0,2.0,73,0.00,OVC,,0.07,WeatherDisplay:10.37,2013-02-20 00:57:00,
2013-02-19 17:02:00,46.5,38.3,29.84,East,96,3.5,3.5,73,0.00,OVC,,0.07,WeatherDisplay:10.37,2013-02-20 01:02:00,
2013-02-19 17:07:00,46.2,38.4,29.84,ESE,103,7.0,7.0,74,0.00,OVC,,0.07,WeatherDisplay:10.37,2013-02-20 01:07:00,
2013-02-19 17:12:00,45.7,38.2,29.84,ENE,62,4.0,4.0,75,0.00,OVC,,0.07,WeatherDisplay:10.37,2013-02-20 01:12:00,
2013-02-19 17:17:00,45.4,37.9,29.84,East,92,2.0,2.0,75,0.00,OVC,,0.07,WeatherDisplay:10.37,2013-02-20 01:17:00,
2013-02-19 17:22:00,45.2,37.4,29.84,East,94,2.3,2.3,74,0.00,OVC,,0.07,WeatherDisplay:10.37,2013-02-20 01:22:00,
2013-02-19 17:27:00,45.1,37.3,29.85,East,101,2.3,2.3,74,0.00,OVC,,0.07,WeatherDisplay:10.37,2013-02-20 01:27:00,
2013-02-19 17:32:00,45.1,37.3,29.85,East,101,2.3,2.3,74,0.00,OVC,,0.07,WeatherDisplay:10.37,2013-02-20 01:32:00,
2013-02-19 17:37:00,45.0,36.9,29.85,East,101,0.0,0.0,73,0.00,OVC,,0.07,WeatherDisplay:10.37,2013-02-20 01:37:00,
2013-02-19 17:42:00,45.0,37.2,29.85,East,101,0.0,0.0,74,0.00,OVC,,0.07,WeatherDisplay:10.37,2013-02-20 01:42:00,
2013-02-19 17:47:00,45.0,37.2,29.85,East,101,0.0,0.0,74,0.00,OVC,,0.07,WeatherDisplay:10.37,2013-02-20 01:47:00,
2013-02-19 17:52:00,45.0,37.2,29.85,East,101,0.0,0.1,74,0.00,OVC,,0.07,WeatherDisplay:10.37,2013-02-20 01:52:00,
2013-02-19 17:57:00,44.8,37.4,29.85,NW,306,0.0,0.0,75,0.00,OVC,,0.07,WeatherDisplay:10.37,2013-02-20 01:57:00,
2013-02-19 18:02:00,44.6,37.2,29.86,NW,306,0.0,0.0,75,0.00,OVC,,0.07,WeatherDisplay:10.37,2013-02-20 02:02:00,
2013-02-19 18:07:00,44.4,37.3,29.86,NW,306,0.0,0.1,76,0.00,OVC,,0.07,WeatherDisplay:10.37,2013-02-20 02:07:00,
2013-02-19 18:12:00,44.3,37.2,29.86,NW,306,2.3,2.3,76,0.00,OVC,,0.07,WeatherDisplay:10.37,2013-02-20 02:12:00,
2013-02-19 18:17:00,44.2,37.4,29.86,NW,306,0.0,0.0,77,0.00,OVC,,0.07,WeatherDisplay:10.37,2013-02-20 02:17:00,
2013-02-19 18:22:00,44.1,37.3,29.87,NW,324,2.3,0.0,77,0.00,OVC,,0.07,WeatherDisplay:10.37,2013-02-20 02:22:00,
2013-02-19 18:27:00,44.1,37.3,29.87,NW,308,6.9,6.9,77,0.00,OVC,,0.07,WeatherDisplay:10.37,2013-02-20 02:27:00,
2013-02-19 18:32:00,44.0,37.6,29.87,NW,308,2.3,0.0,78,0.00,OVC,,0.07,WeatherDisplay:10.37,2013-02-20 02:32:00,
2013-02-19 18:37:00,43.9,37.5,29.87,NW,308,0.0,0.0,78,0.00,OVC,,0.07,WeatherDisplay:10.37,2013-02-20 02:37:00,
2013-02-19 18:42:00,43.7,37.3,29.88,NW,308,0.0,0.0,78,0.00,OVC,,0.07,WeatherDisplay:10.37,2013-02-20 02:42:00,
2013-02-19 18:47:00,43.6,37.2,29.88,NW,308,2.3,2.3,78,0.00,OVC,,0.07,WeatherDisplay:10.37,2013-02-20 02:47:00,
2013-02-19 18:52:00,43.3,36.9,29.89,WNW,300,2.3,2.3,78,0.00,OVC,,0.07,WeatherDisplay:10.37,2013-02-20 02:52:00,
2013-02-19 18:57:00,43.0,36.9,29.89,North,9,3.5,3.5,79,0.00,OVC,,0.07,WeatherDisplay:10.37,2013-02-20 02:57:00,
2013-02-19 19:02:00,42.6,36.5,29.89,North,5,1.1,1.1,79,0.00,OVC,,0.07,WeatherDisplay:10.37,2013-02-20 03:02:00,
2013-02-19 19:07:00,42.4,36.7,29.89,West,272,1.1,0.0,80,0.00,OVC,,0.07,WeatherDisplay:10.37,2013-02-20 03:07:00,
2013-02-19 19:12:00,42.1,36.4,29.89,West,272,0.0,0.0,80,0.00,OVC,,0.07,WeatherDisplay:10.37,2013-02-20 03:12:00,
2013-02-19 19:17:00,41.8,36.4,29.89,SW,215,0.0,0.0,81,0.00,OVC,,0.07,WeatherDisplay:10.37,2013-02-20 03:17:00,
2013-02-19 19:22:00,41.6,36.2,29.89,SW,215,0.0,0.0,81,0.00,OVC,,0.07,WeatherDisplay:10.37,2013-02-20 03:22:00,
2013-02-19 19:27:00,41.2,36.1,29.90,SW,215,0.0,0.0,82,0.00,OVC,,0.07,WeatherDisplay:10.37,2013-02-20 03:27:00,
2013-02-19 19:32:00,41.0,35.9,29.90,SW,215,0.0,0.0,82,0.00,OVC,,0.07,WeatherDisplay:10.37,2013-02-20 03:32:00,
2013-02-19 19:37:00,40.8,36.0,29.90,SW,215,0.0,0.0,83,0.00,OVC,,0.07,WeatherDisplay:10.37,2013-02-20 03:37:00,
2013-02-19 19:42:00,40.6,35.8,29.90,SW,215,0.0,0.0,83,0.00,OVC,,0.07,WeatherDisplay:10.37,2013-02-20 03:42:00,
2013-02-19 19:47:00,40.4,35.6,29.90,SW,215,0.0,0.0,83,0.00,OVC,,0.07,WeatherDisplay:10.37,2013-02-20 03:47:00,
2013-02-19 19:52:00,40.2,35.4,29.91,SW,215,0.0,0.0,83,0.00,OVC,,0.07,WeatherDisplay:10.37,2013-02-20 03:52:00,
2013-02-19 19:57:00,40.0,35.6,29.91,SW,215,0.0,0.0,84,0.00,OVC,,0.07,WeatherDisplay:10.37,2013-02-20 03:57:00,
2013-02-19 20:02:00,39.8,35.4,29.91,SW,215,0.0,0.0,84,0.00,OVC,,0.07,WeatherDisplay:10.37,2013-02-20 04:02:00,
2013-02-19 20:07:00,39.6,35.5,29.92,SW,215,0.0,0.0,85,0.00,OVC,,0.07,WeatherDisplay:10.37,2013-02-20 04:07:00,
2013-02-19 20:12:00,39.4,35.3,29.92,SW,215,0.0,0.0,85,0.00,OVC,,0.07,WeatherDisplay:10.37,2013-02-20 04:12:00,
2013-02-19 20:17:00,39.2,35.4,29.92,SW,215,0.0,0.0,86,0.00,OVC,,0.07,WeatherDisplay:10.37,2013-02-20 04:17:00,
2013-02-19 20:22:00,39.1,35.3,29.93,SW,215,0.0,0.4,86,0.00,OVC,,0.07,WeatherDisplay:10.37,2013-02-20 04:22:00,
2013-02-19 20:27:00,38.9,35.1,29.93,SW,215,0.0,0.0,86,0.00,OVC,,0.07,WeatherDisplay:10.37,2013-02-20 04:27:00,
2013-02-19 20:32:00,38.8,35.0,29.93,SW,215,0.0,0.0,86,0.00,OVC,,0.07,WeatherDisplay:10.37,2013-02-20 04:32:00,
2013-02-19 20:37:00,38.7,35.2,29.93,SW,215,0.0,0.0,87,0.00,OVC,,0.07,WeatherDisplay:10.37,2013-02-20 04:37:00,
2013-02-19 20:42:00,38.6,35.1,29.93,SW,215,0.0,0.0,87,0.00,OVC,,0.07,WeatherDisplay:10.37,2013-02-20 04:42:00,
2013-02-19 20:47:00,38.5,34.7,29.93,SW,215,0.0,0.0,86,0.00,OVC,,0.07,WeatherDisplay:10.37,2013-02-20 04:47:00,
2013-02-19 20:52:00,38.3,34.8,29.94,SW,215,0.0,0.0,87,0.00,OVC,,0.07,WeatherDisplay:10.37,2013-02-20 04:52:00,
2013-02-19 20:57:00,38.2,34.7,29.94,SW,215,0.0,0.0,87,0.00,OVC,,0.07,WeatherDisplay:10.37,2013-02-20 04:57:00,
2013-02-19 21:00:00,38.2,34.7,29.94,SW,215,0.0,0.0,87,0.00,OVC,,0.07,WeatherDisplay:10.37,2013-02-20 05:00:00,
2013-02-19 21:05:00,38.0,34.5,29.94,SW,215,0.0,0.0,87,0.00,OVC,,0.07,WeatherDisplay:10.37,2013-02-20 05:05:00,
2013-02-19 21:10:00,37.9,34.7,29.94,SW,215,0.0,0.0,88,0.00,OVC,,0.07,WeatherDisplay:10.37,2013-02-20 05:10:00,
2013-02-19 21:15:00,37.7,34.5,29.94,SW,215,1.1,1.1,88,0.00,OVC,,0.07,WeatherDisplay:10.37,2013-02-20 05:15:00,
2013-02-19 21:20:00,37.6,34.4,29.94,SW,215,0.0,0.0,88,0.00,OVC,,0.07,WeatherDisplay:10.37,2013-02-20 05:20:00,
2013-02-19 21:25:00,37.6,34.7,29.94,SW,215,0.0,0.0,89,0.00,OVC,,0.07,WeatherDisplay:10.37,2013-02-20 05:25:00,
2013-02-19 21:30:00,37.5,34.6,29.95,SW,215,0.0,0.0,89,0.00,OVC,,0.07,WeatherDisplay:10.37,2013-02-20 05:30:00,
2013-02-19 21:35:00,37.4,34.5,29.95,SW,215,0.0,0.0,89,0.00,OVC,,0.07,WeatherDisplay:10.37,2013-02-20 05:35:00,
2013-02-19 21:40:00,37.4,34.5,29.95,SW,215,0.0,0.0,89,0.00,OVC,,0.07,WeatherDisplay:10.37,2013-02-20 05:40:00,
2013-02-19 21:45:00,37.3,34.4,29.95,SW,215,0.0,0.0,89,0.00,OVC,,0.07,WeatherDisplay:10.37,2013-02-20 05:45:00,
2013-02-19 21:50:00,37.2,34.3,29.96,SW,215,0.0,0.0,89,0.00,OVC,,0.07,WeatherDisplay:10.37,2013-02-20 05:50:00,
2013-02-19 21:55:00,37.1,34.2,29.96,SW,215,0.0,0.0,89,0.00,OVC,,0.07,WeatherDisplay:10.37,2013-02-20 05:55:00,
2013-02-19 22:00:00,37.1,34.2,29.96,SW,215,0.0,0.0,89,0.00,OVC,,0.07,WeatherDisplay:10.37,2013-02-20 06:00:00,
2013-02-19 22:05:00,37.0,34.3,29.95,SW,215,0.0,0.0,90,0.00,OVC,,0.07,WeatherDisplay:10.37,2013-02-20 06:05:00,
2013-02-19 22:10:00,36.9,34.2,29.95,SW,215,0.0,0.0,90,0.00,OVC,,0.07,WeatherDisplay:10.37,2013-02-20 06:10:00,
2013-02-19 22:15:00,36.9,34.2,29.96,SW,215,0.0,0.0,90,0.00,OVC,,0.07,WeatherDisplay:10.37,2013-02-20 06:15:00,
2013-02-19 22:20:00,36.8,34.1,29.96,SW,215,0.0,0.0,90,0.00,OVC,,0.07,WeatherDisplay:10.37,2013-02-20 06:20:00,
2013-02-19 22:25:00,36.7,34.0,29.97,SW,215,0.0,0.0,90,0.00,OVC,,0.07,WeatherDisplay:10.37,2013-02-20 06:25:00,
2013-02-19 22:30:00,36.6,33.9,29.97,SW,215,0.0,0.0,90,0.00,OVC,,0.07,WeatherDisplay:10.37,2013-02-20 06:30:00,
2013-02-19 22:35:00,36.6,33.9,29.97,SW,215,0.0,0.0,90,0.00,OVC,,0.07,WeatherDisplay:10.37,2013-02-20 06:35:00,
2013-02-19 22:40:00,36.5,33.8,29.97,SW,215,1.1,0.0,90,0.00,OVC,,0.07,WeatherDisplay:10.37,2013-02-20 06:40:00,
2013-02-19 22:45:00,36.5,33.8,29.97,SW,215,0.0,0.0,90,0.00,OVC,,0.07,WeatherDisplay:10.37,2013-02-20 06:45:00,
2013-02-19 22:50:00,36.6,34.2,29.97,SW,215,0.0,0.0,91,0.00,OVC,,0.07,WeatherDisplay:10.37,2013-02-20 06:50:00,
2013-02-19 22:55:00,36.5,34.1,29.98,SW,215,0.0,0.0,91,0.00,OVC,,0.07,WeatherDisplay:10.37,2013-02-20 06:55:00,
2013-02-19 23:00:00,36.6,34.2,29.98,SW,215,0.0,0.0,91,0.00,OVC,,0.07,WeatherDisplay:10.37,2013-02-20 07:00:00,
2013-02-19 23:05:00,36.6,34.2,29.98,SW,215,0.0,0.0,91,0.00,OVC,,0.07,WeatherDisplay:10.37,2013-02-20 07:05:00,
2013-02-19 23:10:00,36.6,34.2,29.98,SW,215,0.0,0.0,91,0.00,OVC,,0.07,WeatherDisplay:10.37,2013-02-20 07:10:00,
2013-02-19 23:15:00,36.6,34.2,29.98,SW,215,0.0,0.0,91,0.00,OVC,,0.07,WeatherDisplay:10.37,2013-02-20 07:15:00,
2013-02-19 23:20:00,36.5,34.1,29.98,SW,215,2.3,2.3,91,0.00,OVC,,0.07,WeatherDisplay:10.37,2013-02-20 07:20:00,
2013-02-19 23:25:00,36.5,34.1,29.98,SW,215,0.0,0.0,91,0.00,OVC,,0.07,WeatherDisplay:10.37,2013-02-20 07:25:00,
2013-02-19 23:30:00,36.4,34.0,29.98,SW,215,0.0,0.1,91,0.00,OVC,,0.07,WeatherDisplay:10.37,2013-02-20 07:30:00,
2013-02-19 23:35:00,36.3,33.9,29.99,SW,215,2.3,2.3,91,0.00,OVC,,0.07,WeatherDisplay:10.37,2013-02-20 07:35:00,
2013-02-19 23:40:00,36.2,33.8,29.98,SW,215,2.3,2.3,91,0.00,OVC,,0.07,WeatherDisplay:10.37,2013-02-20 07:40:00,
2013-02-19 23:45:00,36.0,33.6,29.99,WSW,251,2.3,2.3,91,0.00,OVC,,0.07,WeatherDisplay:10.37,2013-02-20 07:45:00,
2013-02-19 23:50:00,35.9,33.5,29.99,WSW,251,1.1,1.1,91,0.00,OVC,,0.07,WeatherDisplay:10.37,2013-02-20 07:50:00,
2013-02-19 23:55:00,35.7,33.3,29.99,WSW,251,1.1,1.1,91,0.00,OVC,,0.07,WeatherDisplay:10.37,2013-02-20 07:55:00,